Time;durP1;ratioP1;P1;durP2;ratioP2;P2;SDS_P1;SDS_P2;PMS_P1;PMS_P2;Temp;Humidity;BMP_temperature;BMP_pressure;BME280_temperature;BME280_humidity;BME280_pressure;Samples;Min_cycle;Max_cycle;Signal;HPM_P1;HPM_P2
2021/09/04 00:01:09;;;;;;;6.50;2.78;;;;;;;;;;4892998;29;20058;-59
2021/09/04 00:03:37;;;;;;;6.88;2.60;;;;;;;;;;4893470;28;20131;-59
2021/09/04 00:06:03;;;;;;;6.15;2.85;;;;;;;;;;4920028;28;20055;-59
2021/09/04 00:08:28;;;;;;;5.40;2.72;;;;;;;;;;4916466;28;20548;-61
2021/09/04 00:10:54;;;;;;;8.93;2.90;;;;;;;;;;4920508;28;20043;-58
2021/09/04 00:13:21;;;;;;;13.27;2.53;;;;;;;;;;4924496;28;20038;-60
2021/09/04 00:15:47;;;;;;;13.40;2.92;;;;;;;;;;4917247;28;20056;-58
2021/09/04 00:18:13;;;;;;;9.27;2.92;;;;;;;;;;4916640;28;20148;-59
2021/09/04 00:20:40;;;;;;;12.68;3.15;;;;;;;;;;4919822;28;20482;-59
2021/09/04 00:23:08;;;;;;;10.65;3.63;;;;;;;;;;4916416;28;20088;-59
2021/09/04 00:25:34;;;;;;;8.40;2.58;;;;;;;;;;4906254;28;20035;-59
2021/09/04 00:27:59;;;;;;;5.05;3.13;;;;;;;;;;4934108;28;20042;-59
2021/09/04 00:30:27;;;;;;;8.85;3.40;;;;;;;;;;4906543;29;20043;-59
2021/09/04 00:32:59;;;;;;;6.63;2.50;;;;;;;;;;4900802;28;20028;-60
2021/09/04 00:35:27;;;;;;;4.60;2.72;;;;;;;;;;4933751;28;20036;-60
2021/09/04 00:37:55;;;;;;;12.13;2.75;;;;;;;;;;4921164;28;20114;-61
2021/09/04 00:40:20;;;;;;;4.10;2.53;;;;;;;;;;4903189;28;20046;-60
2021/09/04 00:42:48;;;;;;;5.15;2.70;;;;;;;;;;4899793;28;20035;-60
2021/09/04 00:45:15;;;;;;;9.57;2.42;;;;;;;;;;4918983;28;20261;-60
2021/09/04 00:47:56;;;;;;;4.30;2.30;;;;;;;;;;4916064;28;20519;-60
2021/09/04 00:50:22;;;;;;;6.05;2.20;;;;;;;;;;4900684;28;20082;-59
2021/09/04 00:52:47;;;;;;;7.80;2.50;;;;;;;;;;4920747;28;20031;-59
2021/09/04 00:55:15;;;;;;;8.25;2.20;;;;;;;;;;4916407;28;20099;-59
2021/09/04 00:57:47;;;;;;;4.35;1.88;;;;;;;;;;4918991;28;20039;-59
2021/09/04 01:00:13;;;;;;;3.65;1.98;;;;;;;;;;4918657;28;20391;-59
2021/09/04 01:02:38;;;;;;;4.68;1.92;;;;;;;;;;4900449;28;20043;-59
2021/09/04 01:05:06;;;;;;;4.47;2.05;;;;;;;;;;4918591;28;20292;-60
2021/09/04 01:07:36;;;;;;;3.47;1.58;;;;;;;;;;4917666;28;20050;-60
2021/09/04 01:10:02;;;;;;;5.47;1.83;;;;;;;;;;4901402;28;20039;-59
2021/09/04 01:12:31;;;;;;;4.97;1.67;;;;;;;;;;4918532;28;20135;-59
2021/09/04 01:14:56;;;;;;;7.82;1.55;;;;;;;;;;4920133;28;20046;-59
2021/09/04 01:17:28;;;;;;;7.97;1.95;;;;;;;;;;4916907;28;20027;-58
2021/09/04 01:19:56;;;;;;;4.90;1.75;;;;;;;;;;4919199;28;20038;-58
2021/09/04 01:22:24;;;;;;;9.20;1.77;;;;;;;;;;4917060;28;20086;-59
2021/09/04 01:24:52;;;;;;;5.35;1.50;;;;;;;;;;4919265;28;20376;-58
2021/09/04 01:27:20;;;;;;;4.75;1.35;;;;;;;;;;4917557;28;20177;-59
2021/09/04 01:29:46;;;;;;;2.97;1.63;;;;;;;;;;4922810;28;20052;-58
2021/09/04 01:32:14;;;;;;;4.65;1.70;;;;;;;;;;4935532;28;20554;-59
2021/09/04 01:34:42;;;;;;;5.30;1.60;;;;;;;;;;4920714;28;20090;-59
2021/09/04 01:37:08;;;;;;;5.65;1.60;;;;;;;;;;4919939;28;20046;-59
2021/09/04 01:39:35;;;;;;;5.53;1.60;;;;;;;;;;4920682;28;20027;-59
2021/09/04 01:42:06;;;;;;;1.65;1.00;;;;;;;;;;4917379;28;20039;-59
2021/09/04 01:44:34;;;;;;;7.22;1.80;;;;;;;;;;4928500;28;20055;-59
2021/09/04 01:47:02;;;;;;;7.25;1.65;;;;;;;;;;4920647;28;20039;-59
2021/09/04 01:49:28;;;;;;;12.10;2.03;;;;;;;;;;4921144;28;20031;-59
2021/09/04 01:51:56;;;;;;;4.63;2.15;;;;;;;;;;4922868;28;20086;-59
2021/09/04 01:54:24;;;;;;;7.28;2.22;;;;;;;;;;4929200;28;20123;-59
2021/09/04 01:56:49;;;;;;;4.13;1.35;;;;;;;;;;4936422;28;20039;-59
2021/09/04 01:59:17;;;;;;;3.20;1.85;;;;;;;;;;4906372;28;20039;-59
2021/09/04 02:01:42;;;;;;;5.50;2.25;;;;;;;;;;4917490;28;20031;-59
2021/09/04 02:04:10;;;;;;;3.53;1.50;;;;;;;;;;4910350;28;20070;-60
2021/09/04 02:06:37;;;;;;;4.90;1.70;;;;;;;;;;4920075;28;20202;-59
2021/09/04 02:09:08;;;;;;;6.68;1.92;;;;;;;;;;4920495;28;20616;-59
2021/09/04 02:11:33;;;;;;;10.77;2.30;;;;;;;;;;4919712;28;20494;-59
2021/09/04 02:14:01;;;;;;;5.97;1.60;;;;;;;;;;4918044;28;20031;-59
2021/09/04 02:16:30;;;;;;;5.28;2.33;;;;;;;;;;4920719;28;20027;-59
2021/09/04 02:18:58;;;;;;;3.63;1.50;;;;;;;;;;4904811;29;20062;-60
2021/09/04 02:21:25;;;;;;;5.88;1.70;;;;;;;;;;4933978;28;20035;-61
2021/09/04 02:23:51;;;;;;;2.58;1.75;;;;;;;;;;4920846;28;22063;-60
2021/09/04 02:26:18;;;;;;;4.07;1.60;;;;;;;;;;4904883;28;20043;-61
2021/09/04 02:28:49;;;;;;;2.30;1.55;;;;;;;;;;4920656;28;20087;-60
2021/09/04 02:31:15;;;;;;;5.13;1.70;;;;;;;;;;4919828;28;20044;-59
2021/09/04 02:33:41;;;;;;;3.25;1.60;;;;;;;;;;4919022;28;21234;-60
2021/09/04 02:36:06;;;;;;;4.82;1.75;;;;;;;;;;4908770;29;20095;-60
2021/09/04 02:38:34;;;;;;;3.33;1.67;;;;;;;;;;4903050;28;20114;-59
2021/09/04 02:40:59;;;;;;;6.68;1.83;;;;;;;;;;4902572;28;20190;-59
2021/09/04 02:43:29;;;;;;;5.25;2.00;;;;;;;;;;4916214;28;20079;-59
2021/09/04 02:45:55;;;;;;;4.00;2.00;;;;;;;;;;4921891;28;20134;-59
2021/09/04 02:48:21;;;;;;;3.30;1.88;;;;;;;;;;4919155;28;20040;-59
2021/09/04 02:50:47;;;;;;;6.75;1.80;;;;;;;;;;4921619;28;20035;-59
2021/09/04 02:53:12;;;;;;;5.10;1.88;;;;;;;;;;4935181;28;20050;-59
2021/09/04 02:55:37;;;;;;;8.05;1.80;;;;;;;;;;4915013;28;20042;-59
2021/09/04 02:58:05;;;;;;;2.85;1.67;;;;;;;;;;4918387;28;20036;-59
2021/09/04 03:00:38;;;;;;;9.27;1.67;;;;;;;;;;4919565;28;20088;-59
2021/09/04 03:03:09;;;;;;;6.80;1.70;;;;;;;;;;4911468;28;20042;-60
2021/09/04 03:05:36;;;;;;;9.02;1.77;;;;;;;;;;4920558;28;20169;-59
2021/09/04 03:08:02;;;;;;;9.50;1.88;;;;;;;;;;4924815;28;20074;-60
2021/09/04 03:10:29;;;;;;;11.43;1.98;;;;;;;;;;4922151;28;20033;-60
2021/09/04 03:12:55;;;;;;;10.70;2.00;;;;;;;;;;4917136;28;20032;-61
2021/09/04 03:15:23;;;;;;;6.05;1.80;;;;;;;;;;4919814;28;20080;-61
2021/09/04 03:17:48;;;;;;;7.57;1.75;;;;;;;;;;4918546;28;20071;-61
2021/09/04 03:20:14;;;;;;;4.20;1.60;;;;;;;;;;4921907;28;20122;-60
2021/09/04 03:22:40;;;;;;;7.88;1.70;;;;;;;;;;4922802;28;20068;-61
2021/09/04 03:25:06;;;;;;;4.47;1.98;;;;;;;;;;4917526;28;20110;-60
2021/09/04 03:27:31;;;;;;;4.25;1.80;;;;;;;;;;4901321;28;20047;-62
2021/09/04 03:30:00;;;;;;;8.98;1.80;;;;;;;;;;4919870;28;20032;-60
2021/09/04 03:32:26;;;;;;;4.70;1.58;;;;;;;;;;4917242;28;20067;-60
2021/09/04 03:34:55;;;;;;;12.43;2.15;;;;;;;;;;4920032;28;20167;-60
2021/09/04 03:37:21;;;;;;;4.90;2.20;;;;;;;;;;4918678;28;20064;-61
2021/09/04 03:39:49;;;;;;;7.78;2.10;;;;;;;;;;4926553;28;20760;-59
2021/09/04 03:42:17;;;;;;;4.85;1.98;;;;;;;;;;4907659;29;20031;-61
2021/09/04 03:44:43;;;;;;;5.70;2.00;;;;;;;;;;4919744;28;20047;-61
2021/09/04 03:47:13;;;;;;;4.20;1.90;;;;;;;;;;4921913;28;20039;-60
2021/09/04 03:49:43;;;;;;;5.18;2.10;;;;;;;;;;4934560;28;20039;-60
2021/09/04 03:52:08;;;;;;;4.68;2.42;;;;;;;;;;4918158;28;20098;-61
2021/09/04 03:54:34;;;;;;;8.18;2.00;;;;;;;;;;4934434;28;20027;-61
2021/09/04 03:56:59;;;;;;;4.28;1.90;;;;;;;;;;4915642;28;20035;-60
2021/09/04 03:59:27;;;;;;;8.43;2.13;;;;;;;;;;4902424;29;20106;-60
2021/09/04 04:01:55;;;;;;;5.75;1.65;;;;;;;;;;4926881;28;20031;-61
2021/09/04 04:04:25;;;;;;;8.55;2.30;;;;;;;;;;4918786;28;20618;-59
2021/09/04 04:06:53;;;;;;;9.52;2.20;;;;;;;;;;4902644;29;20719;-59
2021/09/04 04:09:20;;;;;;;6.40;1.55;;;;;;;;;;4932917;28;20043;-60
2021/09/04 04:11:46;;;;;;;4.35;1.95;;;;;;;;;;4916708;28;20064;-59
2021/09/04 04:14:14;;;;;;;4.32;1.70;;;;;;;;;;4918845;28;20158;-58
2021/09/04 04:16:42;;;;;;;7.03;1.40;;;;;;;;;;4933134;28;21497;-58
2021/09/04 04:19:07;;;;;;;6.03;2.55;;;;;;;;;;4917766;28;20899;-58
2021/09/04 04:21:37;;;;;;;3.38;1.45;;;;;;;;;;4916908;28;20032;-59
2021/09/04 04:24:06;;;;;;;2.88;1.40;;;;;;;;;;4902334;28;20353;-59
2021/09/04 04:26:36;;;;;;;3.20;1.27;;;;;;;;;;4919054;28;20142;-60
2021/09/04 04:29:04;;;;;;;3.22;1.42;;;;;;;;;;4919826;28;20046;-60
2021/09/04 04:31:38;;;;;;;2.95;1.50;;;;;;;;;;4925077;28;20972;-60
2021/09/04 04:34:03;;;;;;;3.58;1.63;;;;;;;;;;4906935;29;20028;-61
2021/09/04 04:36:29;;;;;;;3.75;1.65;;;;;;;;;;4900422;28;20683;-60
2021/09/04 04:38:56;;;;;;;4.32;1.65;;;;;;;;;;4908134;29;20063;-59
2021/09/04 04:41:24;;;;;;;4.50;1.83;;;;;;;;;;4924008;28;20131;-59
2021/09/04 04:43:56;;;;;;;4.53;2.22;;;;;;;;;;4902542;29;20069;-59
2021/09/04 04:46:22;;;;;;;2.05;1.25;;;;;;;;;;4918426;28;20119;-59
2021/09/04 04:48:52;;;;;;;4.32;1.60;;;;;;;;;;4905313;28;20035;-59
2021/09/04 04:51:18;;;;;;;6.22;1.73;;;;;;;;;;4920171;28;20151;-60
2021/09/04 04:53:50;;;;;;;11.10;2.38;;;;;;;;;;4905899;29;20118;-59
2021/09/04 04:56:18;;;;;;;5.03;1.70;;;;;;;;;;4907383;28;20040;-59
2021/09/04 04:58:43;;;;;;;4.97;1.77;;;;;;;;;;4918852;28;20031;-59
2021/09/04 05:01:09;;;;;;;11.88;2.17;;;;;;;;;;4933532;28;20044;-59
2021/09/04 05:03:39;;;;;;;3.75;1.80;;;;;;;;;;4921893;28;20035;-60
2021/09/04 05:06:05;;;;;;;6.00;1.45;;;;;;;;;;4922597;28;20142;-60
2021/09/04 05:08:31;;;;;;;3.63;1.50;;;;;;;;;;4921231;28;20046;-59
2021/09/04 05:10:59;;;;;;;7.57;1.95;;;;;;;;;;4906235;29;20035;-59
2021/09/04 05:13:26;;;;;;;8.80;2.20;;;;;;;;;;4921845;28;20455;-59
2021/09/04 05:15:52;;;;;;;4.90;2.03;;;;;;;;;;4921709;28;20047;-59
2021/09/04 05:18:20;;;;;;;6.10;1.73;;;;;;;;;;4920391;28;20035;-60
2021/09/04 05:20:47;;;;;;;7.22;2.25;;;;;;;;;;4905852;29;20126;-60
2021/09/04 05:23:15;;;;;;;8.90;2.13;;;;;;;;;;4907798;29;20904;-60
2021/09/04 05:25:40;;;;;;;7.35;2.17;;;;;;;;;;4922519;28;20043;-60
2021/09/04 05:28:08;;;;;;;4.95;1.40;;;;;;;;;;4904173;28;20032;-59
2021/09/04 05:30:33;;;;;;;5.45;1.65;;;;;;;;;;4919691;28;20032;-59
2021/09/04 05:33:01;;;;;;;5.47;2.13;;;;;;;;;;4920996;28;20046;-59
2021/09/04 05:35:30;;;;;;;6.57;1.75;;;;;;;;;;4919931;28;20042;-60
2021/09/04 05:37:56;;;;;;;6.28;1.60;;;;;;;;;;4904784;29;20118;-59
2021/09/04 05:40:22;;;;;;;6.78;1.67;;;;;;;;;;4920647;28;20204;-60
2021/09/04 05:42:49;;;;;;;4.32;1.80;;;;;;;;;;4888973;29;20130;-60
2021/09/04 05:45:17;;;;;;;3.42;1.38;;;;;;;;;;4920236;28;20496;-60
2021/09/04 05:47:45;;;;;;;4.57;1.55;;;;;;;;;;4921899;28;20042;-59
2021/09/04 05:50:13;;;;;;;5.60;1.20;;;;;;;;;;4922176;28;20062;-60
2021/09/04 05:52:41;;;;;;;1.83;1.35;;;;;;;;;;4919483;28;20035;-60
2021/09/04 05:55:06;;;;;;;5.78;1.42;;;;;;;;;;4922082;28;20028;-60
2021/09/04 05:57:34;;;;;;;5.45;1.50;;;;;;;;;;4935373;28;20031;-59
2021/09/04 06:00:00;;;;;;;7.53;1.48;;;;;;;;;;4921935;28;20048;-59
2021/09/04 06:02:26;;;;;;;5.18;1.45;;;;;;;;;;4910819;28;20144;-59
2021/09/04 06:04:51;;;;;;;1.83;1.20;;;;;;;;;;4928198;28;20174;-61
2021/09/04 06:07:18;;;;;;;3.28;1.20;;;;;;;;;;4920968;28;20027;-59
2021/09/04 06:09:44;;;;;;;5.10;1.02;;;;;;;;;;4919762;28;22087;-59
2021/09/04 06:12:09;;;;;;;4.88;1.08;;;;;;;;;;4903443;29;20074;-59
2021/09/04 06:14:37;;;;;;;4.47;1.23;;;;;;;;;;4934761;28;20965;-60
2021/09/04 06:17:05;;;;;;;5.15;1.10;;;;;;;;;;4912124;29;20035;-59
2021/09/04 06:19:30;;;;;;;6.20;1.10;;;;;;;;;;4922141;28;20054;-60
2021/09/04 06:21:58;;;;;;;4.95;1.17;;;;;;;;;;4918982;28;20552;-60
2021/09/04 06:24:26;;;;;;;2.47;0.95;;;;;;;;;;4919409;28;20653;-60
2021/09/04 06:26:52;;;;;;;3.35;1.23;;;;;;;;;;4910289;29;20039;-60
2021/09/04 06:29:20;;;;;;;1.88;0.80;;;;;;;;;;4903099;29;20259;-60
2021/09/04 06:31:45;;;;;;;3.40;0.98;;;;;;;;;;4920364;28;20059;-60
2021/09/04 06:34:11;;;;;;;7.25;1.20;;;;;;;;;;4919837;28;20039;-59
2021/09/04 06:36:41;;;;;;;7.82;1.45;;;;;;;;;;4917838;28;20035;-60
2021/09/04 06:39:06;;;;;;;3.10;1.05;;;;;;;;;;4933259;28;20907;-60
2021/09/04 06:41:34;;;;;;;5.90;1.35;;;;;;;;;;4918087;28;20059;-61
2021/09/04 06:43:59;;;;;;;4.18;1.73;;;;;;;;;;4926823;28;20150;-61
2021/09/04 06:46:32;;;;;;;5.38;1.33;;;;;;;;;;4918749;28;20108;-61
2021/09/04 06:49:00;;;;;;;10.45;1.48;;;;;;;;;;4919731;28;20067;-60
2021/09/04 06:51:26;;;;;;;4.70;1.30;;;;;;;;;;4920184;28;20455;-60
2021/09/04 06:53:54;;;;;;;4.55;1.10;;;;;;;;;;4919854;28;20024;-60
2021/09/04 06:56:19;;;;;;;2.58;0.95;;;;;;;;;;4921324;28;20130;-60
2021/09/04 06:58:47;;;;;;;3.22;1.20;;;;;;;;;;4907171;28;20033;-61
2021/09/04 07:01:12;;;;;;;8.02;1.50;;;;;;;;;;4904297;28;20047;-61
2021/09/04 07:03:42;;;;;;;5.82;1.35;;;;;;;;;;4921336;28;20036;-60
2021/09/04 07:06:10;;;;;;;3.55;1.08;;;;;;;;;;4919164;28;20031;-60
2021/09/04 07:08:37;;;;;;;2.35;1.00;;;;;;;;;;4916607;28;20039;-61
2021/09/04 07:11:06;;;;;;;3.85;1.30;;;;;;;;;;4920417;28;20055;-61
2021/09/04 07:13:33;;;;;;;3.80;1.27;;;;;;;;;;4901685;28;20028;-60
2021/09/04 07:16:04;;;;;;;6.75;1.42;;;;;;;;;;4905004;29;20032;-61
2021/09/04 07:18:29;;;;;;;3.25;1.30;;;;;;;;;;4917909;28;20098;-60
2021/09/04 07:20:54;;;;;;;3.60;1.08;;;;;;;;;;4921194;28;20031;-61
2021/09/04 07:23:22;;;;;;;3.58;1.08;;;;;;;;;;4886523;29;20040;-60
2021/09/04 07:25:50;;;;;;;3.97;1.30;;;;;;;;;;4919693;28;20158;-60
2021/09/04 07:28:15;;;;;;;8.35;1.58;;;;;;;;;;4917684;28;20173;-60
2021/09/04 07:30:44;;;;;;;3.15;1.58;;;;;;;;;;4920552;28;20028;-60
2021/09/04 07:33:11;;;;;;;8.52;1.75;;;;;;;;;;4920268;28;20055;-60
2021/09/04 07:35:37;;;;;;;2.85;1.27;;;;;;;;;;4933746;28;20035;-60
2021/09/04 07:38:03;;;;;;;5.53;1.35;;;;;;;;;;4901794;28;20035;-61
2021/09/04 07:40:30;;;;;;;4.32;1.30;;;;;;;;;;4926665;28;20063;-59
2021/09/04 07:42:56;;;;;;;6.38;1.20;;;;;;;;;;4917937;28;20664;-60
2021/09/04 07:45:26;;;;;;;3.20;1.00;;;;;;;;;;4920169;28;20054;-61
2021/09/04 07:47:56;;;;;;;1.50;0.90;;;;;;;;;;4918876;28;20428;-61
2021/09/04 07:50:21;;;;;;;4.55;1.67;;;;;;;;;;4919198;28;20047;-61
2021/09/04 07:52:48;;;;;;;6.95;1.50;;;;;;;;;;4919587;28;20051;-61
2021/09/04 07:55:15;;;;;;;5.00;1.40;;;;;;;;;;4922204;28;20039;-61
2021/09/04 07:57:43;;;;;;;3.83;1.00;;;;;;;;;;4918724;28;20126;-61
2021/09/04 08:00:09;;;;;;;4.32;1.20;;;;;;;;;;4919856;28;20043;-61
2021/09/04 08:02:34;;;;;;;3.22;0.88;;;;;;;;;;4919682;28;20089;-61
2021/09/04 08:05:00;;;;;;;4.25;0.82;;;;;;;;;;4917996;28;20671;-60
2021/09/04 08:07:28;;;;;;;8.77;1.23;;;;;;;;;;4884631;29;20031;-60
2021/09/04 08:09:56;;;;;;;1.70;0.95;;;;;;;;;;4922292;28;20118;-62
2021/09/04 08:12:22;;;;;;;1.77;0.85;;;;;;;;;;4917693;28;20039;-60
2021/09/04 08:14:47;;;;;;;1.60;0.73;;;;;;;;;;4918795;28;20023;-61
2021/09/04 08:17:17;;;;;;;2.65;1.10;;;;;;;;;;4915607;28;20046;-61
2021/09/04 08:19:45;;;;;;;5.05;1.48;;;;;;;;;;4901942;29;20043;-61
2021/09/04 08:22:10;;;;;;;3.63;1.30;;;;;;;;;;4916996;28;20050;-62
2021/09/04 08:24:38;;;;;;;4.63;1.58;;;;;;;;;;4910238;28;20031;-61
2021/09/04 08:27:04;;;;;;;2.97;0.90;;;;;;;;;;4918306;28;20908;-61
2021/09/04 08:29:30;;;;;;;3.90;1.42;;;;;;;;;;4917723;28;20077;-61
2021/09/04 08:31:56;;;;;;;5.30;1.30;;;;;;;;;;4918314;28;20039;-61
2021/09/04 08:34:26;;;;;;;3.83;1.25;;;;;;;;;;4918148;28;20039;-61
2021/09/04 08:36:52;;;;;;;4.80;1.40;;;;;;;;;;4918302;28;20028;-61
2021/09/04 08:39:18;;;;;;;4.60;1.40;;;;;;;;;;4921840;28;20043;-61
2021/09/04 08:41:44;;;;;;;6.03;1.67;;;;;;;;;;4916504;28;20038;-62
2021/09/04 08:44:12;;;;;;;5.05;1.23;;;;;;;;;;4917780;28;20524;-61
2021/09/04 08:46:43;;;;;;;4.53;1.30;;;;;;;;;;4917920;28;20694;-62
2021/09/04 08:49:08;;;;;;;6.32;1.38;;;;;;;;;;4919555;28;20562;-62
2021/09/04 08:51:34;;;;;;;5.78;1.38;;;;;;;;;;4920512;28;20038;-62
2021/09/04 08:54:02;;;;;;;4.18;1.10;;;;;;;;;;4916856;28;20039;-62
2021/09/04 08:56:31;;;;;;;6.03;1.58;;;;;;;;;;4918721;28;20051;-62
2021/09/04 08:58:57;;;;;;;4.70;1.52;;;;;;;;;;4919578;28;20042;-62
2021/09/04 09:01:26;;;;;;;4.95;1.48;;;;;;;;;;4917350;28;20039;-62
2021/09/04 09:03:56;;;;;;;3.00;1.58;;;;;;;;;;4920599;28;20062;-62
2021/09/04 09:06:29;;;;;;;4.68;1.90;;;;;;;;;;4923348;28;20047;-62
2021/09/04 09:08:57;;;;;;;4.93;2.10;;;;;;;;;;4918391;28;20127;-61
2021/09/04 09:11:23;;;;;;;10.32;2.00;;;;;;;;;;4914754;28;20054;-62
2021/09/04 09:13:54;;;;;;;4.82;1.88;;;;;;;;;;4914851;28;20032;-61
2021/09/04 09:16:22;;;;;;;9.02;2.05;;;;;;;;;;4913334;29;20036;-61
2021/09/04 09:18:58;;;;;;;6.15;2.20;;;;;;;;;;4920523;28;20206;-61
2021/09/04 09:21:30;;;;;;;46.35;5.43;;;;;;;;;;4916545;28;20151;-61
2021/09/04 09:24:08;;;;;;;7.00;2.42;;;;;;;;;;4917203;28;20035;-61
2021/09/04 09:26:33;;;;;;;6.05;2.25;;;;;;;;;;4915944;28;20042;-61
2021/09/04 09:29:19;;;;;;;8.68;2.05;;;;;;;;;;4915152;28;20027;-61
2021/09/04 09:31:49;;;;;;;6.50;2.30;;;;;;;;;;4917902;28;20027;-61
2021/09/04 09:34:17;;;;;;;4.88;2.38;;;;;;;;;;4915926;28;21194;-61
2021/09/04 09:36:47;;;;;;;7.03;2.53;;;;;;;;;;4924256;28;20134;-62
2021/09/04 09:39:15;;;;;;;6.40;2.55;;;;;;;;;;4930193;28;20034;-62
2021/09/04 09:41:53;;;;;;;7.68;2.95;;;;;;;;;;4916236;28;20039;-62
2021/09/04 09:44:25;;;;;;;4.40;2.38;;;;;;;;;;4918493;28;20055;-63
2021/09/04 09:46:54;;;;;;;5.32;2.95;;;;;;;;;;4917628;28;20815;-61
2021/09/04 09:49:27;;;;;;;6.35;2.70;;;;;;;;;;4934740;28;20149;-61
2021/09/04 09:51:59;;;;;;;6.60;2.50;;;;;;;;;;4920770;28;20115;-61
2021/09/04 09:54:26;;;;;;;5.60;2.47;;;;;;;;;;4919035;28;20094;-61
2021/09/04 09:56:55;;;;;;;11.05;3.10;;;;;;;;;;4933465;28;20495;-60
2021/09/04 09:59:22;;;;;;;7.90;2.78;;;;;;;;;;4923079;28;20116;-61
2021/09/04 10:01:48;;;;;;;4.35;2.67;;;;;;;;;;4920789;28;20034;-61
2021/09/04 10:04:16;;;;;;;9.18;2.97;;;;;;;;;;4921039;28;20035;-62
2021/09/04 10:06:44;;;;;;;7.55;2.88;;;;;;;;;;4918990;28;20187;-61
2021/09/04 10:09:12;;;;;;;10.50;2.78;;;;;;;;;;4919051;28;20703;-61
2021/09/04 10:11:44;;;;;;;8.38;2.97;;;;;;;;;;4920186;28;20422;-60
2021/09/04 10:14:12;;;;;;;5.70;2.83;;;;;;;;;;4917135;28;20063;-61
2021/09/04 10:16:43;;;;;;;15.05;3.72;;;;;;;;;;4918903;28;20487;-62
2021/09/04 10:19:09;;;;;;;5.07;2.58;;;;;;;;;;4917468;28;20755;-63
2021/09/04 10:21:41;;;;;;;6.50;2.60;;;;;;;;;;4919499;28;20046;-62
2021/09/04 10:24:07;;;;;;;56.95;7.28;;;;;;;;;;4919253;28;20118;-62
2021/09/04 10:26:33;;;;;;;10.63;3.17;;;;;;;;;;4917509;28;20034;-62
2021/09/04 10:29:18;;;;;;;7.88;3.28;;;;;;;;;;4919649;28;20067;-61
2021/09/04 10:31:52;;;;;;;6.70;3.00;;;;;;;;;;4919930;28;20122;-62
2021/09/04 10:34:26;;;;;;;6.65;2.58;;;;;;;;;;4917585;28;20035;-61
2021/09/04 10:36:58;;;;;;;6.18;2.95;;;;;;;;;;4919297;28;20168;-62
2021/09/04 10:39:24;;;;;;;6.03;2.78;;;;;;;;;;4933132;28;20629;-61
2021/09/04 10:41:50;;;;;;;7.75;2.95;;;;;;;;;;4923883;28;20775;-61
2021/09/04 10:44:17;;;;;;;10.15;3.40;;;;;;;;;;4922326;28;20562;-61
2021/09/04 10:46:43;;;;;;;9.45;3.03;;;;;;;;;;4919014;28;20055;-61
2021/09/04 10:49:12;;;;;;;11.77;3.15;;;;;;;;;;4920988;28;20079;-61
2021/09/04 10:51:44;;;;;;;8.43;3.40;;;;;;;;;;4919869;28;20500;-61
2021/09/04 10:54:35;;;;;;;8.52;3.13;;;;;;;;;;4919924;28;20166;-61
2021/09/04 10:57:12;;;;;;;7.68;3.03;;;;;;;;;;4916733;28;20751;-62
2021/09/04 10:59:57;;;;;;;6.95;3.05;;;;;;;;;;4918136;28;20044;-62
2021/09/04 11:02:25;;;;;;;6.95;3.03;;;;;;;;;;4925982;28;20146;-62
2021/09/04 11:04:57;;;;;;;7.85;2.85;;;;;;;;;;4919790;28;20028;-62
2021/09/04 11:07:46;;;;;;;5.10;3.03;;;;;;;;;;4919097;28;20039;-62
2021/09/04 11:10:22;;;;;;;8.93;3.00;;;;;;;;;;4900647;28;20054;-61
2021/09/04 11:13:05;;;;;;;8.48;2.83;;;;;;;;;;4916507;28;20031;-62
2021/09/04 11:15:31;;;;;;;4.82;2.47;;;;;;;;;;4919687;28;20746;-62
2021/09/04 11:17:59;;;;;;;4.57;2.50;;;;;;;;;;4919210;28;20055;-62
2021/09/04 11:20:28;;;;;;;14.00;2.72;;;;;;;;;;4909176;28;20031;-62
2021/09/04 11:22:54;;;;;;;5.57;2.78;;;;;;;;;;4918627;28;20180;-62
2021/09/04 11:25:20;;;;;;;5.85;2.40;;;;;;;;;;4933945;28;20448;-62
2021/09/04 11:27:48;;;;;;;5.63;2.63;;;;;;;;;;4918551;28;21141;-62
2021/09/04 11:30:17;;;;;;;7.60;2.42;;;;;;;;;;4926779;28;20036;-62
2021/09/04 11:32:45;;;;;;;6.93;2.50;;;;;;;;;;4917832;28;20034;-62
2021/09/04 11:35:16;;;;;;;8.00;2.50;;;;;;;;;;4921647;28;20035;-62
2021/09/04 11:37:44;;;;;;;8.07;2.38;;;;;;;;;;4933139;28;20096;-62
2021/09/04 11:40:12;;;;;;;6.30;2.10;;;;;;;;;;4925500;28;20150;-63
2021/09/04 11:42:39;;;;;;;6.20;2.13;;;;;;;;;;4916709;28;20407;-61
2021/09/04 11:45:10;;;;;;;4.13;2.08;;;;;;;;;;4919711;28;20633;-61
2021/09/04 11:47:39;;;;;;;3.17;1.92;;;;;;;;;;4919426;28;20031;-62
2021/09/04 11:50:08;;;;;;;5.05;2.40;;;;;;;;;;4923544;28;20032;-61
2021/09/04 11:52:38;;;;;;;5.85;2.10;;;;;;;;;;4917157;28;20074;-61
2021/09/04 11:55:08;;;;;;;5.28;2.50;;;;;;;;;;4917909;28;20039;-60
2021/09/04 11:57:34;;;;;;;3.90;2.30;;;;;;;;;;4931640;28;20080;-62
2021/09/04 12:00:00;;;;;;;5.05;1.88;;;;;;;;;;4918323;28;20044;-61
2021/09/04 12:02:28;;;;;;;8.50;2.20;;;;;;;;;;4920107;28;20046;-61
2021/09/04 12:04:58;;;;;;;6.35;2.40;;;;;;;;;;4917196;28;20043;-61
2021/09/04 12:07:29;;;;;;;6.38;2.40;;;;;;;;;;4918687;28;21346;-61
2021/09/04 12:10:00;;;;;;;7.00;2.50;;;;;;;;;;4918957;28;20047;-61
2021/09/04 12:12:29;;;;;;;7.05;2.38;;;;;;;;;;4917860;28;20135;-60
2021/09/04 12:14:57;;;;;;;5.90;2.03;;;;;;;;;;4925176;28;20077;-61
2021/09/04 12:17:24;;;;;;;3.90;1.92;;;;;;;;;;4919064;28;20070;-61
2021/09/04 12:19:52;;;;;;;3.10;1.90;;;;;;;;;;4923863;28;22372;-62
2021/09/04 12:22:40;;;;;;;3.55;2.08;;;;;;;;;;4918047;28;20123;-61
2021/09/04 12:25:28;;;;;;;9.63;2.30;;;;;;;;;;4917960;28;20074;-62
2021/09/04 12:28:01;;;;;;;6.07;2.08;;;;;;;;;;4918665;28;20038;-61
2021/09/04 12:30:30;;;;;;;3.40;2.20;;;;;;;;;;4920142;28;20031;-61
2021/09/04 12:33:04;;;;;;;3.13;2.03;;;;;;;;;;4932271;28;20786;-62
2021/09/04 12:35:51;;;;;;;7.20;2.33;;;;;;;;;;4906840;28;20114;-61
2021/09/04 12:38:22;;;;;;;5.47;2.42;;;;;;;;;;4914789;28;20085;-62
2021/09/04 12:41:04;;;;;;;4.68;1.80;;;;;;;;;;4934413;28;20039;-62
2021/09/04 12:43:47;;;;;;;5.82;2.83;;;;;;;;;;4915967;28;22040;-61
2021/09/04 12:46:12;;;;;;;5.75;2.75;;;;;;;;;;4918574;28;20028;-61
2021/09/04 12:48:39;;;;;;;3.40;2.05;;;;;;;;;;4917491;28;20138;-62
2021/09/04 12:51:11;;;;;;;4.82;2.03;;;;;;;;;;4916686;28;20035;-62
2021/09/04 12:53:36;;;;;;;5.40;2.30;;;;;;;;;;4918287;28;20039;-62
2021/09/04 12:56:06;;;;;;;8.35;2.38;;;;;;;;;;4919227;28;20039;-62
2021/09/04 12:58:32;;;;;;;3.15;1.90;;;;;;;;;;4923103;28;20027;-62
2021/09/04 13:01:05;;;;;;;3.85;2.05;;;;;;;;;;4919074;28;20181;-62
2021/09/04 13:03:31;;;;;;;3.38;2.30;;;;;;;;;;4908129;28;20043;-62
2021/09/04 13:06:00;;;;;;;5.45;2.30;;;;;;;;;;4918622;28;20096;-63
2021/09/04 13:08:27;;;;;;;3.63;2.50;;;;;;;;;;4915580;28;20167;-63
2021/09/04 13:10:58;;;;;;;6.13;2.03;;;;;;;;;;4917358;28;20075;-63
2021/09/04 13:13:24;;;;;;;4.53;2.28;;;;;;;;;;4918398;28;20047;-62
2021/09/04 13:15:54;;;;;;;4.28;2.20;;;;;;;;;;4919915;28;20044;-63
2021/09/04 13:18:19;;;;;;;7.18;2.00;;;;;;;;;;4918567;28;20040;-63
2021/09/04 13:20:48;;;;;;;7.20;2.17;;;;;;;;;;4918792;28;20051;-61
2021/09/04 13:23:13;;;;;;;7.10;2.10;;;;;;;;;;4917589;28;20035;-62
2021/09/04 13:25:39;;;;;;;4.10;2.05;;;;;;;;;;4918566;28;20043;-62
2021/09/04 13:28:05;;;;;;;2.53;1.73;;;;;;;;;;4928651;28;20912;-63
2021/09/04 13:30:30;;;;;;;5.50;2.28;;;;;;;;;;4911776;28;20923;-64
2021/09/04 13:32:56;;;;;;;5.40;1.90;;;;;;;;;;4935447;28;20680;-64
2021/09/04 13:35:24;;;;;;;6.13;1.80;;;;;;;;;;4923812;28;21114;-63
2021/09/04 13:37:49;;;;;;;6.20;2.28;;;;;;;;;;4935640;28;20039;-63
2021/09/04 13:40:15;;;;;;;4.32;2.33;;;;;;;;;;4922451;28;20067;-62
2021/09/04 13:42:42;;;;;;;3.35;2.30;;;;;;;;;;4919962;28;20035;-63
2021/09/04 13:45:10;;;;;;;3.42;2.15;;;;;;;;;;4902553;28;20496;-63
2021/09/04 13:47:36;;;;;;;5.60;2.17;;;;;;;;;;4903606;29;20043;-63
2021/09/04 13:50:01;;;;;;;7.20;1.95;;;;;;;;;;4926356;28;20154;-63
2021/09/04 13:52:30;;;;;;;3.53;2.28;;;;;;;;;;4921363;28;20510;-62
2021/09/04 13:54:57;;;;;;;4.18;1.90;;;;;;;;;;4924251;28;20565;-63
2021/09/04 13:57:33;;;;;;;3.13;1.63;;;;;;;;;;4909084;28;20039;-63
2021/09/04 14:00:02;;;;;;;5.65;2.00;;;;;;;;;;4921350;28;20024;-63
2021/09/04 14:02:29;;;;;;;3.17;1.75;;;;;;;;;;4920561;28;20038;-62
2021/09/04 14:04:55;;;;;;;4.45;2.50;;;;;;;;;;4934646;28;20028;-63
2021/09/04 14:07:22;;;;;;;2.88;1.80;;;;;;;;;;4920605;28;20032;-63
2021/09/04 14:09:50;;;;;;;4.55;2.08;;;;;;;;;;4920542;28;21030;-63
2021/09/04 14:12:16;;;;;;;5.03;2.10;;;;;;;;;;4907904;28;20563;-63
2021/09/04 14:14:47;;;;;;;8.20;2.20;;;;;;;;;;4907250;29;20040;-63
2021/09/04 14:17:13;;;;;;;3.78;2.00;;;;;;;;;;4918095;28;20190;-63
2021/09/04 14:19:38;;;;;;;3.38;2.20;;;;;;;;;;4919925;28;20483;-62
2021/09/04 14:22:07;;;;;;;2.60;1.80;;;;;;;;;;4921649;28;20042;-63
2021/09/04 14:24:35;;;;;;;6.10;2.30;;;;;;;;;;4919419;28;20949;-63
2021/09/04 14:27:01;;;;;;;5.72;2.03;;;;;;;;;;4916589;28;20047;-63
2021/09/04 14:29:26;;;;;;;3.53;1.73;;;;;;;;;;4919034;28;20040;-63
2021/09/04 14:31:52;;;;;;;3.58;2.10;;;;;;;;;;4935021;28;20039;-63
2021/09/04 14:34:20;;;;;;;7.85;2.00;;;;;;;;;;4902793;28;20043;-63
2021/09/04 14:36:47;;;;;;;5.00;2.33;;;;;;;;;;4933382;28;20055;-63
2021/09/04 14:39:15;;;;;;;4.35;2.65;;;;;;;;;;4918952;28;20094;-62
2021/09/04 14:41:43;;;;;;;5.10;2.28;;;;;;;;;;4887291;28;20059;-63
2021/09/04 14:44:13;;;;;;;4.63;2.65;;;;;;;;;;4917734;28;20664;-63
2021/09/04 14:46:39;;;;;;;5.07;2.78;;;;;;;;;;4920891;28;20034;-61
2021/09/04 14:49:11;;;;;;;4.93;2.43;;;;;;;;;;4916550;28;20035;-63